Terminal Aerodrome Forecast
Issued by NWS

Home | Current Version | Previous Version | Text Only | Print | Product List | Glossary Off
Versions: 1 2 3 4 5 6 7 8 9 10 11 12 13 14 15 16 17 18

321
FTUS43 KMPX 221120
TAFRWF
TAF
KRWF 221120Z 2212/2312 VRB03KT P6SM SCT250
     FM221500 12007KT P6SM SCT250
     FM230400 09004KT P6SM OVC200=

USA.gov is the U.S. government's official web portal to all federal, state and local government web resources and services.